sensor_id;sensor_type;location;lat;lon;timestamp;temperature;humidity
45807;DHT22;31507;51.494;7.518;2023-06-14T00:02:04;15.20;99.90
45807;DHT22;31507;51.494;7.518;2023-06-14T00:04:33;15.20;99.90
45807;DHT22;31507;51.494;7.518;2023-06-14T00:06:58;15.30;99.60
45807;DHT22;31507;51.494;7.518;2023-06-14T00:09:24;15.40;99.30
45807;DHT22;31507;51.494;7.518;2023-06-14T00:11:50;15.40;99.40
45807;DHT22;31507;51.494;7.518;2023-06-14T00:14:16;15.40;99.20
45807;DHT22;31507;51.494;7.518;2023-06-14T00:16:41;15.40;99.20
45807;DHT22;31507;51.494;7.518;2023-06-14T00:19:08;15.40;99.20
45807;DHT22;31507;51.494;7.518;2023-06-14T00:21:38;15.40;99.40
45807;DHT22;31507;51.494;7.518;2023-06-14T00:24:04;15.30;99.70
45807;DHT22;31507;51.494;7.518;2023-06-14T00:26:30;15.30;99.70
45807;DHT22;31507;51.494;7.518;2023-06-14T00:28:56;15.30;99.90
45807;DHT22;31507;51.494;7.518;2023-06-14T00:31:22;15.20;99.90
45807;DHT22;31507;51.494;7.518;2023-06-14T00:33:48;15.20;99.90
45807;DHT22;31507;51.494;7.518;2023-06-14T00:36:14;15.30;99.90
45807;DHT22;31507;51.494;7.518;2023-06-14T00:38:39;15.20;99.90
45807;DHT22;31507;51.494;7.518;2023-06-14T00:41:05;15.10;99.90
45807;DHT22;31507;51.494;7.518;2023-06-14T00:43:30;15.10;99.90
45807;DHT22;31507;51.494;7.518;2023-06-14T00:45:56;15.00;99.90
45807;DHT22;31507;51.494;7.518;2023-06-14T00:48:22;15.00;99.90
45807;DHT22;31507;51.494;7.518;2023-06-14T00:50:49;15.00;99.90
45807;DHT22;31507;51.494;7.518;2023-06-14T00:53:16;14.90;99.90
45807;DHT22;31507;51.494;7.518;2023-06-14T00:55:43;14.90;99.90
45807;DHT22;31507;51.494;7.518;2023-06-14T00:58:09;14.80;99.90
45807;DHT22;31507;51.494;7.518;2023-06-14T01:00:36;14.80;99.90
45807;DHT22;31507;51.494;7.518;2023-06-14T01:03:01;14.70;99.90
45807;DHT22;31507;51.494;7.518;2023-06-14T01:05:27;14.80;99.90
45807;DHT22;31507;51.494;7.518;2023-06-14T01:13:33;14.50;99.90
45807;DHT22;31507;51.494;7.518;2023-06-14T01:16:00;14.40;99.90
45807;DHT22;31507;51.494;7.518;2023-06-14T01:18:28;14.30;99.90
45807;DHT22;31507;51.494;7.518;2023-06-14T01:20:55;14.10;99.90
45807;DHT22;31507;51.494;7.518;2023-06-14T01:23:22;14.00;99.90
45807;DHT22;31507;51.494;7.518;2023-06-14T01:25:49;13.80;99.90
45807;DHT22;31507;51.494;7.518;2023-06-14T01:28:19;13.80;99.90
45807;DHT22;31507;51.494;7.518;2023-06-14T01:30:48;13.80;99.90
45807;DHT22;31507;51.494;7.518;2023-06-14T01:33:17;13.80;99.90
45807;DHT22;31507;51.494;7.518;2023-06-14T01:35:46;13.80;99.90
45807;DHT22;31507;51.494;7.518;2023-06-14T01:38:12;13.80;99.90
45807;DHT22;31507;51.494;7.518;2023-06-14T01:40:39;13.80;99.90
45807;DHT22;31507;51.494;7.518;2023-06-14T01:43:05;13.80;99.90
45807;DHT22;31507;51.494;7.518;2023-06-14T01:45:33;13.80;99.90
45807;DHT22;31507;51.494;7.518;2023-06-14T01:47:59;13.80;99.90
45807;DHT22;31507;51.494;7.518;2023-06-14T01:50:29;13.80;99.90
45807;DHT22;31507;51.494;7.518;2023-06-14T01:52:55;13.80;99.90
45807;DHT22;31507;51.494;7.518;2023-06-14T01:55:21;13.80;99.90
45807;DHT22;31507;51.494;7.518;2023-06-14T01:57:47;13.80;99.90
45807;DHT22;31507;51.494;7.518;2023-06-14T02:00:14;13.70;99.90
45807;DHT22;31507;51.494;7.518;2023-06-14T02:02:40;13.80;99.90
45807;DHT22;31507;51.494;7.518;2023-06-14T02:05:06;13.80;99.90
45807;DHT22;31507;51.494;7.518;2023-06-14T02:07:33;13.70;99.90
45807;DHT22;31507;51.494;7.518;2023-06-14T02:09:59;13.70;99.90
45807;DHT22;31507;51.494;7.518;2023-06-14T02:12:24;13.70;99.90
45807;DHT22;31507;51.494;7.518;2023-06-14T02:14:50;13.70;99.90
45807;DHT22;31507;51.494;7.518;2023-06-14T02:17:16;13.70;99.90
45807;DHT22;31507;51.494;7.518;2023-06-14T02:19:42;13.60;99.90
45807;DHT22;31507;51.494;7.518;2023-06-14T02:22:08;13.70;99.90
45807;DHT22;31507;51.494;7.518;2023-06-14T02:24:34;13.60;99.90
45807;DHT22;31507;51.494;7.518;2023-06-14T02:27:01;13.60;99.90
45807;DHT22;31507;51.494;7.518;2023-06-14T02:29:27;13.60;99.90
45807;DHT22;31507;51.494;7.518;2023-06-14T02:31:53;13.70;99.90
45807;DHT22;31507;51.494;7.518;2023-06-14T02:34:18;13.60;99.90
45807;DHT22;31507;51.494;7.518;2023-06-14T02:36:45;13.60;99.90
45807;DHT22;31507;51.494;7.518;2023-06-14T02:39:11;13.50;99.90
45807;DHT22;31507;51.494;7.518;2023-06-14T02:41:37;13.50;99.90
45807;DHT22;31507;51.494;7.518;2023-06-14T02:44:02;13.50;99.90
45807;DHT22;31507;51.494;7.518;2023-06-14T02:46:28;13.50;99.90
45807;DHT22;31507;51.494;7.518;2023-06-14T02:48:54;13.50;99.90
45807;DHT22;31507;51.494;7.518;2023-06-14T02:51:19;13.50;99.90
45807;DHT22;31507;51.494;7.518;2023-06-14T02:53:45;13.50;99.90
45807;DHT22;31507;51.494;7.518;2023-06-14T02:56:10;13.40;99.90
45807;DHT22;31507;51.494;7.518;2023-06-14T02:58:37;13.50;99.90
45807;DHT22;31507;51.494;7.518;2023-06-14T03:01:05;13.50;99.90
45807;DHT22;31507;51.494;7.518;2023-06-14T03:03:31;13.40;99.90
45807;DHT22;31507;51.494;7.518;2023-06-14T03:05:57;13.40;99.90
45807;DHT22;31507;51.494;7.518;2023-06-14T03:08:22;13.40;99.90
45807;DHT22;31507;51.494;7.518;2023-06-14T03:10:52;13.40;99.90
45807;DHT22;31507;51.494;7.518;2023-06-14T03:13:18;13.30;99.90
45807;DHT22;31507;51.494;7.518;2023-06-14T03:15:46;13.30;99.90
45807;DHT22;31507;51.494;7.518;2023-06-14T03:18:18;13.30;99.90
45807;DHT22;31507;51.494;7.518;2023-06-14T03:20:44;13.30;99.90
45807;DHT22;31507;51.494;7.518;2023-06-14T03:23:11;13.40;99.90
45807;DHT22;31507;51.494;7.518;2023-06-14T03:25:37;13.40;99.90
45807;DHT22;31507;51.494;7.518;2023-06-14T03:28:07;13.30;99.90
45807;DHT22;31507;51.494;7.518;2023-06-14T03:30:33;13.20;99.90
45807;DHT22;31507;51.494;7.518;2023-06-14T03:32:58;13.20;99.90
45807;DHT22;31507;51.494;7.518;2023-06-14T03:35:26;13.20;99.90
45807;DHT22;31507;51.494;7.518;2023-06-14T03:37:52;13.20;99.90
45807;DHT22;31507;51.494;7.518;2023-06-14T03:40:19;13.20;99.90
45807;DHT22;31507;51.494;7.518;2023-06-14T03:42:45;13.20;99.90
45807;DHT22;31507;51.494;7.518;2023-06-14T03:45:11;13.20;99.90
45807;DHT22;31507;51.494;7.518;2023-06-14T03:47:36;13.10;99.90
45807;DHT22;31507;51.494;7.518;2023-06-14T03:50:03;13.10;99.90
45807;DHT22;31507;51.494;7.518;2023-06-14T03:52:28;13.10;99.90
45807;DHT22;31507;51.494;7.518;2023-06-14T03:54:54;13.10;99.90
45807;DHT22;31507;51.494;7.518;2023-06-14T03:57:21;13.00;99.90
45807;DHT22;31507;51.494;7.518;2023-06-14T03:59:47;13.10;99.90
45807;DHT22;31507;51.494;7.518;2023-06-14T04:02:12;13.00;99.90
45807;DHT22;31507;51.494;7.518;2023-06-14T04:04:41;13.10;99.90
45807;DHT22;31507;51.494;7.518;2023-06-14T04:07:10;13.10;99.90
45807;DHT22;31507;51.494;7.518;2023-06-14T04:09:37;13.30;99.90
45807;DHT22;31507;51.494;7.518;2023-06-14T04:12:03;13.30;99.90
45807;DHT22;31507;51.494;7.518;2023-06-14T04:14:29;13.40;99.90
45807;DHT22;31507;51.494;7.518;2023-06-14T04:16:56;13.40;99.90
45807;DHT22;31507;51.494;7.518;2023-06-14T04:19:21;13.40;99.90
45807;DHT22;31507;51.494;7.518;2023-06-14T04:21:47;13.60;99.90
45807;DHT22;31507;51.494;7.518;2023-06-14T04:24:13;13.60;99.90
45807;DHT22;31507;51.494;7.518;2023-06-14T04:26:42;13.50;99.90
45807;DHT22;31507;51.494;7.518;2023-06-14T04:29:13;13.50;99.90
45807;DHT22;31507;51.494;7.518;2023-06-14T04:31:43;13.40;99.90
45807;DHT22;31507;51.494;7.518;2023-06-14T04:34:10;13.40;99.90
45807;DHT22;31507;51.494;7.518;2023-06-14T04:36:42;13.30;99.90
45807;DHT22;31507;51.494;7.518;2023-06-14T04:39:17;13.40;99.90
45807;DHT22;31507;51.494;7.518;2023-06-14T04:41:43;13.40;99.90
45807;DHT22;31507;51.494;7.518;2023-06-14T04:44:10;13.50;99.90
45807;DHT22;31507;51.494;7.518;2023-06-14T04:46:36;13.60;99.90
45807;DHT22;31507;51.494;7.518;2023-06-14T04:49:15;13.60;99.90
45807;DHT22;31507;51.494;7.518;2023-06-14T04:51:44;13.60;99.90
45807;DHT22;31507;51.494;7.518;2023-06-14T04:54:11;13.70;99.90
45807;DHT22;31507;51.494;7.518;2023-06-14T04:56:40;13.80;99.90
45807;DHT22;31507;51.494;7.518;2023-06-14T04:59:07;13.90;99.90
45807;DHT22;31507;51.494;7.518;2023-06-14T05:01:34;13.90;99.90
45807;DHT22;31507;51.494;7.518;2023-06-14T05:04:00;14.20;99.90
45807;DHT22;31507;51.494;7.518;2023-06-14T05:06:26;14.30;99.90
45807;DHT22;31507;51.494;7.518;2023-06-14T05:08:53;14.50;99.90
45807;DHT22;31507;51.494;7.518;2023-06-14T05:11:19;14.60;99.90
45807;DHT22;31507;51.494;7.518;2023-06-14T05:13:44;14.60;99.90
45807;DHT22;31507;51.494;7.518;2023-06-14T05:16:11;14.70;99.90
45807;DHT22;31507;51.494;7.518;2023-06-14T05:18:37;14.90;99.90
45807;DHT22;31507;51.494;7.518;2023-06-14T05:21:04;15.00;99.90
45807;DHT22;31507;51.494;7.518;2023-06-14T05:23:32;15.10;99.90
45807;DHT22;31507;51.494;7.518;2023-06-14T05:25:58;15.30;99.90
45807;DHT22;31507;51.494;7.518;2023-06-14T05:28:24;15.50;99.90
45807;DHT22;31507;51.494;7.518;2023-06-14T05:30:51;15.70;99.80
45807;DHT22;31507;51.494;7.518;2023-06-14T05:33:17;15.90;98.50
45807;DHT22;31507;51.494;7.518;2023-06-14T05:35:43;16.10;97.60
45807;DHT22;31507;51.494;7.518;2023-06-14T05:38:08;16.30;97.40
45807;DHT22;31507;51.494;7.518;2023-06-14T05:40:34;16.50;95.90
45807;DHT22;31507;51.494;7.518;2023-06-14T05:43:00;16.90;94.30
45807;DHT22;31507;51.494;7.518;2023-06-14T05:45:26;17.50;91.30
45807;DHT22;31507;51.494;7.518;2023-06-14T05:47:52;18.50;87.80
45807;DHT22;31507;51.494;7.518;2023-06-14T05:50:20;19.70;82.00
45807;DHT22;31507;51.494;7.518;2023-06-14T05:52:45;20.60;77.80
45807;DHT22;31507;51.494;7.518;2023-06-14T05:55:11;21.10;73.70
45807;DHT22;31507;51.494;7.518;2023-06-14T05:57:40;21.50;71.70
45807;DHT22;31507;51.494;7.518;2023-06-14T06:00:08;21.50;70.40
45807;DHT22;31507;51.494;7.518;2023-06-14T06:02:42;21.70;69.10
45807;DHT22;31507;51.494;7.518;2023-06-14T06:05:09;21.90;66.80
45807;DHT22;31507;51.494;7.518;2023-06-14T06:07:35;22.00;67.90
45807;DHT22;31507;51.494;7.518;2023-06-14T06:10:01;22.20;67.30
45807;DHT22;31507;51.494;7.518;2023-06-14T06:12:27;22.30;66.50
45807;DHT22;31507;51.494;7.518;2023-06-14T06:14:52;22.40;66.00
45807;DHT22;31507;51.494;7.518;2023-06-14T06:17:18;22.40;65.00
45807;DHT22;31507;51.494;7.518;2023-06-14T06:19:44;22.40;65.30
45807;DHT22;31507;51.494;7.518;2023-06-14T06:22:10;22.60;64.30
45807;DHT22;31507;51.494;7.518;2023-06-14T06:24:35;22.40;64.60
45807;DHT22;31507;51.494;7.518;2023-06-14T06:27:01;22.50;64.20
45807;DHT22;31507;51.494;7.518;2023-06-14T06:29:27;22.10;63.80
45807;DHT22;31507;51.494;7.518;2023-06-14T06:31:53;21.60;66.60
45807;DHT22;31507;51.494;7.518;2023-06-14T06:34:18;20.90;68.10
45807;DHT22;31507;51.494;7.518;2023-06-14T06:36:44;20.30;69.30
45807;DHT22;31507;51.494;7.518;2023-06-14T06:39:10;20.00;71.20
45807;DHT22;31507;51.494;7.518;2023-06-14T06:41:37;20.00;72.20
45807;DHT22;31507;51.494;7.518;2023-06-14T06:44:05;20.40;71.70
45807;DHT22;31507;51.494;7.518;2023-06-14T06:46:32;21.30;70.30
45807;DHT22;31507;51.494;7.518;2023-06-14T06:48:58;21.80;67.60
45807;DHT22;31507;51.494;7.518;2023-06-14T06:51:23;22.00;67.10
45807;DHT22;31507;51.494;7.518;2023-06-14T06:53:53;22.10;66.90
45807;DHT22;31507;51.494;7.518;2023-06-14T06:56:19;22.10;65.30
45807;DHT22;31507;51.494;7.518;2023-06-14T06:58:45;22.10;66.10
45807;DHT22;31507;51.494;7.518;2023-06-14T07:01:11;22.10;65.70
45807;DHT22;31507;51.494;7.518;2023-06-14T07:03:37;22.20;65.60
45807;DHT22;31507;51.494;7.518;2023-06-14T07:06:02;22.30;65.60
45807;DHT22;31507;51.494;7.518;2023-06-14T07:08:29;22.20;65.20
45807;DHT22;31507;51.494;7.518;2023-06-14T07:10:54;22.30;65.10
45807;DHT22;31507;51.494;7.518;2023-06-14T07:13:20;22.40;64.80
45807;DHT22;31507;51.494;7.518;2023-06-14T07:15:46;22.30;64.20
45807;DHT22;31507;51.494;7.518;2023-06-14T07:18:12;22.00;65.50
45807;DHT22;31507;51.494;7.518;2023-06-14T07:20:38;22.00;65.20
45807;DHT22;31507;51.494;7.518;2023-06-14T07:23:04;22.20;65.80
45807;DHT22;31507;51.494;7.518;2023-06-14T07:25:30;22.30;65.70
45807;DHT22;31507;51.494;7.518;2023-06-14T07:27:56;22.20;64.80
45807;DHT22;31507;51.494;7.518;2023-06-14T07:30:22;21.90;64.90
45807;DHT22;31507;51.494;7.518;2023-06-14T07:32:51;21.80;65.40
45807;DHT22;31507;51.494;7.518;2023-06-14T07:35:18;21.60;65.40
45807;DHT22;31507;51.494;7.518;2023-06-14T07:37:43;21.60;66.10
45807;DHT22;31507;51.494;7.518;2023-06-14T07:40:09;21.50;66.10
45807;DHT22;31507;51.494;7.518;2023-06-14T07:42:35;21.70;66.90
45807;DHT22;31507;51.494;7.518;2023-06-14T07:45:05;21.90;65.10
45807;DHT22;31507;51.494;7.518;2023-06-14T07:47:31;21.80;64.90
45807;DHT22;31507;51.494;7.518;2023-06-14T07:49:57;21.60;64.80
45807;DHT22;31507;51.494;7.518;2023-06-14T07:52:22;21.40;64.70
45807;DHT22;31507;51.494;7.518;2023-06-14T07:54:48;21.50;64.20
45807;DHT22;31507;51.494;7.518;2023-06-14T07:57:14;21.70;63.70
45807;DHT22;31507;51.494;7.518;2023-06-14T07:59:40;21.70;62.80
45807;DHT22;31507;51.494;7.518;2023-06-14T08:02:06;21.90;63.10
45807;DHT22;31507;51.494;7.518;2023-06-14T08:04:32;22.00;61.90
45807;DHT22;31507;51.494;7.518;2023-06-14T08:06:59;21.90;61.90
45807;DHT22;31507;51.494;7.518;2023-06-14T08:09:24;21.90;60.20
45807;DHT22;31507;51.494;7.518;2023-06-14T08:11:50;21.80;60.90
45807;DHT22;31507;51.494;7.518;2023-06-14T08:14:16;22.00;59.70
45807;DHT22;31507;51.494;7.518;2023-06-14T08:16:42;22.20;59.70
45807;DHT22;31507;51.494;7.518;2023-06-14T08:19:07;22.30;59.40
45807;DHT22;31507;51.494;7.518;2023-06-14T08:21:33;22.20;59.40
45807;DHT22;31507;51.494;7.518;2023-06-14T08:24:01;22.30;58.60
45807;DHT22;31507;51.494;7.518;2023-06-14T08:26:27;22.30;58.90
45807;DHT22;31507;51.494;7.518;2023-06-14T08:28:54;22.20;58.00
45807;DHT22;31507;51.494;7.518;2023-06-14T08:31:20;22.40;58.40
45807;DHT22;31507;51.494;7.518;2023-06-14T08:33:46;22.60;58.70
45807;DHT22;31507;51.494;7.518;2023-06-14T08:36:12;22.60;58.20
45807;DHT22;31507;51.494;7.518;2023-06-14T08:38:38;22.90;57.90
45807;DHT22;31507;51.494;7.518;2023-06-14T08:41:05;23.00;57.20
45807;DHT22;31507;51.494;7.518;2023-06-14T08:43:32;22.80;57.20
45807;DHT22;31507;51.494;7.518;2023-06-14T08:46:03;22.80;57.30
45807;DHT22;31507;51.494;7.518;2023-06-14T08:48:29;22.80;56.80
45807;DHT22;31507;51.494;7.518;2023-06-14T08:50:59;22.90;56.70
45807;DHT22;31507;51.494;7.518;2023-06-14T08:53:31;22.90;56.40
45807;DHT22;31507;51.494;7.518;2023-06-14T08:56:00;22.80;55.50
45807;DHT22;31507;51.494;7.518;2023-06-14T08:58:31;22.80;55.40
45807;DHT22;31507;51.494;7.518;2023-06-14T09:01:03;23.00;55.10
45807;DHT22;31507;51.494;7.518;2023-06-14T09:03:30;22.70;54.90
45807;DHT22;31507;51.494;7.518;2023-06-14T09:05:59;22.60;55.30
45807;DHT22;31507;51.494;7.518;2023-06-14T09:08:26;22.50;55.30
45807;DHT22;31507;51.494;7.518;2023-06-14T09:10:56;22.60;55.80
45807;DHT22;31507;51.494;7.518;2023-06-14T09:13:22;22.60;56.10
45807;DHT22;31507;51.494;7.518;2023-06-14T09:15:47;22.70;56.40
45807;DHT22;31507;51.494;7.518;2023-06-14T09:18:13;22.70;56.60
45807;DHT22;31507;51.494;7.518;2023-06-14T09:20:38;22.90;57.50
45807;DHT22;31507;51.494;7.518;2023-06-14T09:23:05;22.70;57.90
45807;DHT22;31507;51.494;7.518;2023-06-14T09:25:33;23.20;58.00
45807;DHT22;31507;51.494;7.518;2023-06-14T09:27:58;23.50;58.10
45807;DHT22;31507;51.494;7.518;2023-06-14T09:30:24;23.80;58.40
45807;DHT22;31507;51.494;7.518;2023-06-14T09:32:50;23.90;57.80
45807;DHT22;31507;51.494;7.518;2023-06-14T09:35:17;23.60;56.50
45807;DHT22;31507;51.494;7.518;2023-06-14T09:37:43;23.10;57.50
45807;DHT22;31507;51.494;7.518;2023-06-14T09:40:09;23.20;57.90
45807;DHT22;31507;51.494;7.518;2023-06-14T09:42:36;23.10;58.00
45807;DHT22;31507;51.494;7.518;2023-06-14T09:45:03;23.10;58.10
45807;DHT22;31507;51.494;7.518;2023-06-14T09:47:29;23.30;58.80
45807;DHT22;31507;51.494;7.518;2023-06-14T09:49:55;23.30;58.20
45807;DHT22;31507;51.494;7.518;2023-06-14T09:52:22;23.50;58.20
45807;DHT22;31507;51.494;7.518;2023-06-14T09:54:52;23.70;58.50
45807;DHT22;31507;51.494;7.518;2023-06-14T09:57:23;23.80;59.00
45807;DHT22;31507;51.494;7.518;2023-06-14T09:59:53;23.80;58.10
45807;DHT22;31507;51.494;7.518;2023-06-14T10:02:34;24.00;57.80
45807;DHT22;31507;51.494;7.518;2023-06-14T10:05:04;24.20;55.70
45807;DHT22;31507;51.494;7.518;2023-06-14T10:07:53;23.90;56.70
45807;DHT22;31507;51.494;7.518;2023-06-14T10:10:19;24.00;57.20
45807;DHT22;31507;51.494;7.518;2023-06-14T10:12:45;23.80;57.60
45807;DHT22;31507;51.494;7.518;2023-06-14T10:15:20;23.80;57.80
45807;DHT22;31507;51.494;7.518;2023-06-14T10:17:59;24.00;57.50
45807;DHT22;31507;51.494;7.518;2023-06-14T10:20:33;24.00;58.10
45807;DHT22;31507;51.494;7.518;2023-06-14T10:23:08;24.30;56.30
45807;DHT22;31507;51.494;7.518;2023-06-14T10:25:35;24.20;56.90
45807;DHT22;31507;51.494;7.518;2023-06-14T10:28:20;24.30;56.50
45807;DHT22;31507;51.494;7.518;2023-06-14T10:31:07;24.30;57.00
45807;DHT22;31507;51.494;7.518;2023-06-14T10:33:47;24.30;57.20
45807;DHT22;31507;51.494;7.518;2023-06-14T10:36:29;24.70;57.20
45807;DHT22;31507;51.494;7.518;2023-06-14T10:39:15;24.80;56.40
45807;DHT22;31507;51.494;7.518;2023-06-14T10:41:53;25.00;56.30
45807;DHT22;31507;51.494;7.518;2023-06-14T10:46:54;25.10;55.30
45807;DHT22;31507;51.494;7.518;2023-06-14T10:49:39;24.80;55.30
45807;DHT22;31507;51.494;7.518;2023-06-14T10:52:15;24.70;55.70
45807;DHT22;31507;51.494;7.518;2023-06-14T10:55:04;24.60;55.60
45807;DHT22;31507;51.494;7.518;2023-06-14T10:57:34;24.90;56.20
45807;DHT22;31507;51.494;7.518;2023-06-14T11:00:01;24.90;55.10
45807;DHT22;31507;51.494;7.518;2023-06-14T11:05:27;25.40;55.10
45807;DHT22;31507;51.494;7.518;2023-06-14T11:10:43;24.90;53.70
45807;DHT22;31507;51.494;7.518;2023-06-14T11:13:11;25.10;55.10
45807;DHT22;31507;51.494;7.518;2023-06-14T11:15:37;25.40;53.70
45807;DHT22;31507;51.494;7.518;2023-06-14T11:18:09;25.10;54.40
45807;DHT22;31507;51.494;7.518;2023-06-14T11:20:36;24.90;54.70
45807;DHT22;31507;51.494;7.518;2023-06-14T11:23:02;25.00;54.70
45807;DHT22;31507;51.494;7.518;2023-06-14T11:25:29;25.10;54.70
45807;DHT22;31507;51.494;7.518;2023-06-14T11:27:55;24.90;54.20
45807;DHT22;31507;51.494;7.518;2023-06-14T11:30:22;25.00;54.30
45807;DHT22;31507;51.494;7.518;2023-06-14T11:32:48;25.10;53.70
45807;DHT22;31507;51.494;7.518;2023-06-14T11:35:15;25.10;53.40
45807;DHT22;31507;51.494;7.518;2023-06-14T11:37:41;25.40;54.30
45807;DHT22;31507;51.494;7.518;2023-06-14T11:40:08;25.50;53.40
45807;DHT22;31507;51.494;7.518;2023-06-14T11:42:35;25.50;54.20
45807;DHT22;31507;51.494;7.518;2023-06-14T11:45:02;25.50;54.20
45807;DHT22;31507;51.494;7.518;2023-06-14T11:47:34;25.40;54.10
45807;DHT22;31507;51.494;7.518;2023-06-14T11:50:01;25.60;53.90
45807;DHT22;31507;51.494;7.518;2023-06-14T11:52:27;25.70;53.70
45807;DHT22;31507;51.494;7.518;2023-06-14T11:54:53;25.60;53.30
45807;DHT22;31507;51.494;7.518;2023-06-14T11:57:19;25.60;53.90
45807;DHT22;31507;51.494;7.518;2023-06-14T11:59:45;25.70;52.50
45807;DHT22;31507;51.494;7.518;2023-06-14T12:02:18;25.70;53.90
45807;DHT22;31507;51.494;7.518;2023-06-14T12:04:46;26.10;53.40
45807;DHT22;31507;51.494;7.518;2023-06-14T12:07:16;26.10;52.80
45807;DHT22;31507;51.494;7.518;2023-06-14T12:10:03;25.80;52.90
45807;DHT22;31507;51.494;7.518;2023-06-14T12:12:35;25.80;54.70
45807;DHT22;31507;51.494;7.518;2023-06-14T12:15:03;25.90;52.80
45807;DHT22;31507;51.494;7.518;2023-06-14T12:17:35;26.00;53.60
45807;DHT22;31507;51.494;7.518;2023-06-14T12:20:06;25.90;52.90
45807;DHT22;31507;51.494;7.518;2023-06-14T12:22:53;26.00;52.70
45807;DHT22;31507;51.494;7.518;2023-06-14T12:25:29;25.80;52.80
45807;DHT22;31507;51.494;7.518;2023-06-14T12:28:03;25.90;52.10
45807;DHT22;31507;51.494;7.518;2023-06-14T12:30:29;26.00;52.20
45807;DHT22;31507;51.494;7.518;2023-06-14T12:32:55;26.00;52.50
45807;DHT22;31507;51.494;7.518;2023-06-14T12:35:20;26.10;52.00
45807;DHT22;31507;51.494;7.518;2023-06-14T12:37:46;26.10;51.80
45807;DHT22;31507;51.494;7.518;2023-06-14T12:40:12;26.20;51.10
45807;DHT22;31507;51.494;7.518;2023-06-14T12:42:40;26.00;51.70
45807;DHT22;31507;51.494;7.518;2023-06-14T12:45:06;26.20;50.80
45807;DHT22;31507;51.494;7.518;2023-06-14T12:47:32;25.90;50.60
45807;DHT22;31507;51.494;7.518;2023-06-14T12:49:57;25.80;51.50
45807;DHT22;31507;51.494;7.518;2023-06-14T12:52:23;26.00;50.90
45807;DHT22;31507;51.494;7.518;2023-06-14T12:54:49;26.00;51.60
45807;DHT22;31507;51.494;7.518;2023-06-14T12:57:14;26.00;51.00
45807;DHT22;31507;51.494;7.518;2023-06-14T12:59:40;25.90;50.50
45807;DHT22;31507;51.494;7.518;2023-06-14T13:02:17;25.90;51.30
45807;DHT22;31507;51.494;7.518;2023-06-14T13:04:43;26.10;52.60
45807;DHT22;31507;51.494;7.518;2023-06-14T13:07:08;26.20;51.10
45807;DHT22;31507;51.494;7.518;2023-06-14T13:09:36;26.10;50.90
45807;DHT22;31507;51.494;7.518;2023-06-14T13:12:01;26.10;51.60
45807;DHT22;31507;51.494;7.518;2023-06-14T13:14:27;26.10;51.50
45807;DHT22;31507;51.494;7.518;2023-06-14T13:16:53;26.20;50.70
45807;DHT22;31507;51.494;7.518;2023-06-14T13:19:18;26.20;50.90
45807;DHT22;31507;51.494;7.518;2023-06-14T13:21:44;26.10;50.70
45807;DHT22;31507;51.494;7.518;2023-06-14T13:24:09;26.00;50.70
45807;DHT22;31507;51.494;7.518;2023-06-14T13:26:35;26.10;51.00
45807;DHT22;31507;51.494;7.518;2023-06-14T13:29:01;26.20;50.80
45807;DHT22;31507;51.494;7.518;2023-06-14T13:31:26;26.50;50.70
45807;DHT22;31507;51.494;7.518;2023-06-14T13:33:52;26.50;50.30
45807;DHT22;31507;51.494;7.518;2023-06-14T13:36:17;26.40;50.20
45807;DHT22;31507;51.494;7.518;2023-06-14T13:38:43;26.20;49.80
45807;DHT22;31507;51.494;7.518;2023-06-14T13:41:09;26.20;50.70
45807;DHT22;31507;51.494;7.518;2023-06-14T13:43:34;26.40;50.30
45807;DHT22;31507;51.494;7.518;2023-06-14T13:46:00;26.00;50.30
45807;DHT22;31507;51.494;7.518;2023-06-14T13:48:26;25.90;50.60
45807;DHT22;31507;51.494;7.518;2023-06-14T13:50:51;26.10;51.20
45807;DHT22;31507;51.494;7.518;2023-06-14T13:53:17;26.30;51.00
45807;DHT22;31507;51.494;7.518;2023-06-14T13:55:43;26.40;50.20
45807;DHT22;31507;51.494;7.518;2023-06-14T13:58:08;26.30;50.10
45807;DHT22;31507;51.494;7.518;2023-06-14T14:00:34;26.30;50.80
45807;DHT22;31507;51.494;7.518;2023-06-14T14:03:03;26.40;50.20
45807;DHT22;31507;51.494;7.518;2023-06-14T14:05:28;26.60;50.00
45807;DHT22;31507;51.494;7.518;2023-06-14T14:07:56;26.70;50.50
45807;DHT22;31507;51.494;7.518;2023-06-14T14:10:23;26.50;49.00
45807;DHT22;31507;51.494;7.518;2023-06-14T14:12:50;26.30;49.70
45807;DHT22;31507;51.494;7.518;2023-06-14T14:15:16;26.30;49.70
45807;DHT22;31507;51.494;7.518;2023-06-14T14:17:42;26.30;49.70
45807;DHT22;31507;51.494;7.518;2023-06-14T14:20:08;26.30;49.30
45807;DHT22;31507;51.494;7.518;2023-06-14T14:22:34;26.30;50.00
45807;DHT22;31507;51.494;7.518;2023-06-14T14:24:59;26.40;49.80
45807;DHT22;31507;51.494;7.518;2023-06-14T14:27:25;26.10;49.30
45807;DHT22;31507;51.494;7.518;2023-06-14T14:29:50;26.10;50.80
45807;DHT22;31507;51.494;7.518;2023-06-14T14:32:16;26.20;50.30
45807;DHT22;31507;51.494;7.518;2023-06-14T14:34:42;26.40;50.00
45807;DHT22;31507;51.494;7.518;2023-06-14T14:37:08;26.60;49.60
45807;DHT22;31507;51.494;7.518;2023-06-14T14:39:33;26.90;49.40
45807;DHT22;31507;51.494;7.518;2023-06-14T14:41:59;26.90;48.60
45807;DHT22;31507;51.494;7.518;2023-06-14T14:44:25;26.50;48.80
45807;DHT22;31507;51.494;7.518;2023-06-14T14:46:51;26.60;48.90
45807;DHT22;31507;51.494;7.518;2023-06-14T14:49:16;26.70;49.20
45807;DHT22;31507;51.494;7.518;2023-06-14T14:51:42;27.10;48.20
45807;DHT22;31507;51.494;7.518;2023-06-14T14:54:08;27.10;48.60
45807;DHT22;31507;51.494;7.518;2023-06-14T14:56:33;27.20;48.40
45807;DHT22;31507;51.494;7.518;2023-06-14T14:59:00;27.30;48.70
45807;DHT22;31507;51.494;7.518;2023-06-14T15:01:26;27.20;47.60
45807;DHT22;31507;51.494;7.518;2023-06-14T15:03:51;27.10;48.00
45807;DHT22;31507;51.494;7.518;2023-06-14T15:06:17;27.20;48.30
45807;DHT22;31507;51.494;7.518;2023-06-14T15:08:43;27.10;47.00
45807;DHT22;31507;51.494;7.518;2023-06-14T15:11:09;26.90;48.00
45807;DHT22;31507;51.494;7.518;2023-06-14T15:13:35;27.00;48.30
45807;DHT22;31507;51.494;7.518;2023-06-14T15:16:00;26.90;48.30
45807;DHT22;31507;51.494;7.518;2023-06-14T15:18:26;26.90;47.90
45807;DHT22;31507;51.494;7.518;2023-06-14T15:20:52;26.90;47.40
45807;DHT22;31507;51.494;7.518;2023-06-14T15:23:17;27.00;47.40
45807;DHT22;31507;51.494;7.518;2023-06-14T15:25:46;26.90;47.00
45807;DHT22;31507;51.494;7.518;2023-06-14T15:28:14;26.70;46.60
45807;DHT22;31507;51.494;7.518;2023-06-14T15:30:43;26.60;47.00
45807;DHT22;31507;51.494;7.518;2023-06-14T15:33:09;26.60;46.60
45807;DHT22;31507;51.494;7.518;2023-06-14T15:35:34;26.50;47.40
45807;DHT22;31507;51.494;7.518;2023-06-14T15:38:01;26.60;47.40
45807;DHT22;31507;51.494;7.518;2023-06-14T15:40:27;26.80;47.70
45807;DHT22;31507;51.494;7.518;2023-06-14T15:42:54;26.90;48.60
45807;DHT22;31507;51.494;7.518;2023-06-14T15:45:20;26.90;47.80